createdAt,value
2023-06-18T00:00:46.876Z,23.52
2023-06-18T00:01:48.742Z,20.98
2023-06-18T00:02:50.585Z,21.52
2023-06-18T00:03:52.877Z,20.87
2023-06-18T00:04:55.092Z,19.45
2023-06-18T00:05:57.001Z,20.90
2023-06-18T00:06:58.898Z,21.38
2023-06-18T00:08:00.758Z,21.65
2023-06-18T00:09:02.620Z,20.00
2023-06-18T00:10:04.709Z,20.77
2023-06-18T00:11:06.776Z,20.75
2023-06-18T00:12:09.228Z,20.65
2023-06-18T00:13:11.020Z,23.08
2023-06-18T00:14:12.987Z,20.83
2023-06-18T00:15:15.083Z,18.13
2023-06-18T00:16:16.963Z,20.33
2023-06-18T00:17:18.935Z,21.50
2023-06-18T00:18:20.794Z,19.90
2023-06-18T00:19:22.728Z,20.13
2023-06-18T00:20:24.594Z,19.88
2023-06-18T00:21:26.471Z,20.85
2023-06-18T00:22:28.352Z,21.17
2023-06-18T00:23:30.124Z,24.48
2023-06-18T00:24:32.138Z,19.47
2023-06-18T00:25:34.326Z,19.13
2023-06-18T00:26:36.378Z,21.25
2023-06-18T00:27:38.217Z,21.73
2023-06-18T00:28:40.134Z,19.80
2023-06-18T00:29:42.217Z,20.40
2023-06-18T00:30:44.029Z,23.17
2023-06-18T00:31:45.960Z,23.40
2023-06-18T00:32:47.976Z,22.67
2023-06-18T00:33:49.851Z,19.42
2023-06-18T00:34:51.690Z,21.10
2023-06-18T00:35:54.177Z,20.92
2023-06-18T00:36:55.966Z,21.67
2023-06-18T00:37:57.813Z,20.88
2023-06-18T00:38:59.672Z,22.33
2023-06-18T00:40:01.654Z,21.27
2023-06-18T00:41:03.996Z,19.55
2023-06-18T00:42:06.678Z,20.83
2023-06-18T00:43:08.487Z,20.08
2023-06-18T00:44:10.294Z,19.05
2023-06-18T00:45:12.097Z,19.37
2023-06-18T00:46:14.066Z,21.45
2023-06-18T00:47:18.478Z,21.30
2023-06-18T00:48:20.824Z,19.23
2023-06-18T00:49:22.730Z,18.67
2023-06-18T00:50:25.245Z,20.90
2023-06-18T00:51:27.984Z,20.17
2023-06-18T00:52:29.789Z,19.23
2023-06-18T00:53:33.165Z,17.92
2023-06-18T00:54:36.976Z,18.88
2023-06-18T00:55:40.012Z,19.53
2023-06-18T00:56:45.410Z,18.38
2023-06-18T00:57:47.624Z,21.25
2023-06-18T00:58:49.416Z,20.40
2023-06-18T00:59:51.604Z,20.42
2023-06-18T01:00:53.479Z,20.40
2023-06-18T01:01:57.891Z,24.08
2023-06-18T01:03:05.207Z,20.83
2023-06-18T01:04:07.542Z,22.38
2023-06-18T01:05:09.801Z,21.25
2023-06-18T01:08:09.123Z,22.60
2023-06-18T01:09:11.292Z,19.52
2023-06-18T01:10:13.163Z,20.45
2023-06-18T01:11:15.333Z,22.42
2023-06-18T01:12:17.225Z,21.17
2023-06-18T01:13:19.226Z,23.10
2023-06-18T01:14:22.738Z,24.02
2023-06-18T01:15:24.774Z,20.90
2023-06-18T01:16:26.618Z,22.25
2023-06-18T01:17:31.222Z,21.77
2023-06-18T01:18:34.906Z,20.83
2023-06-18T01:19:55.227Z,20.00
2023-06-18T01:20:57.309Z,23.50
2023-06-18T01:22:07.368Z,20.23
2023-06-18T01:23:18.101Z,23.23
2023-06-18T01:24:23.801Z,21.27
2023-06-18T01:25:27.190Z,19.98
2023-06-18T01:26:30.315Z,21.23
2023-06-18T01:27:32.964Z,23.30
2023-06-18T01:28:35.071Z,21.80
2023-06-18T01:29:37.554Z,21.67
2023-06-18T01:30:39.359Z,24.83
2023-06-18T01:31:43.861Z,25.10
2023-06-18T01:32:45.663Z,23.05
2023-06-18T01:33:47.880Z,26.13
2023-06-18T01:34:49.791Z,24.35
2023-06-18T01:35:51.544Z,24.30
2023-06-18T01:37:16.238Z,24.48
2023-06-18T01:38:45.101Z,22.98
2023-06-18T01:40:05.724Z,21.70
2023-06-18T01:41:24.327Z,21.55
2023-06-18T01:42:28.745Z,24.98
2023-06-18T01:43:30.398Z,25.15
2023-06-18T01:44:32.417Z,22.55
2023-06-18T01:45:41.095Z,22.33
2023-06-18T01:46:43.427Z,24.42
2023-06-18T01:47:47.115Z,22.90
2023-06-18T01:49:00.896Z,28.05
2023-06-18T01:50:04.110Z,24.02
2023-06-18T01:51:06.932Z,25.73
2023-06-18T01:52:09.949Z,22.48
2023-06-18T01:53:17.282Z,24.67
2023-06-18T01:54:21.834Z,26.83
2023-06-18T01:55:25.141Z,24.13
2023-06-18T01:56:27.489Z,23.42
2023-06-18T01:57:29.728Z,24.80
2023-06-18T01:58:31.994Z,25.27
2023-06-18T01:59:33.744Z,24.88
2023-06-18T02:00:35.585Z,25.45
2023-06-18T02:01:37.538Z,28.53
2023-06-18T02:02:39.492Z,26.15
2023-06-18T02:03:42.316Z,26.42
2023-06-18T02:04:44.328Z,27.08
2023-06-18T02:05:47.112Z,28.23
2023-06-18T02:06:48.895Z,28.48
2023-06-18T02:07:50.660Z,30.02
2023-06-18T02:08:52.448Z,29.08
2023-06-18T02:09:54.221Z,27.92
2023-06-18T02:10:56.150Z,29.20
2023-06-18T02:11:58.052Z,30.77
2023-06-18T02:12:59.900Z,29.95
2023-06-18T02:14:01.688Z,29.20
2023-06-18T02:15:03.801Z,27.52
2023-06-18T02:16:05.552Z,30.35
2023-06-18T02:17:07.594Z,30.58
2023-06-18T02:18:09.583Z,29.40
2023-06-18T02:19:11.335Z,27.10
2023-06-18T02:20:13.104Z,32.05
2023-06-18T02:21:14.957Z,27.30
2023-06-18T02:22:16.796Z,26.30
2023-06-18T02:23:19.028Z,27.30
2023-06-18T02:24:21.122Z,30.25
2023-06-18T02:25:23.181Z,27.48
2023-06-18T02:26:25.220Z,27.88
2023-06-18T02:27:27.048Z,29.88
2023-06-18T02:28:28.898Z,28.42
2023-06-18T02:29:30.715Z,31.67
2023-06-18T02:30:32.514Z,29.02
2023-06-18T02:31:34.312Z,29.52
2023-06-18T02:32:36.071Z,31.00
2023-06-18T02:33:37.859Z,29.00
2023-06-18T02:34:39.772Z,29.85
2023-06-18T02:35:41.714Z,27.08
2023-06-18T02:36:43.546Z,27.23
2023-06-18T02:37:45.759Z,28.58
2023-06-18T02:38:47.639Z,28.20
2023-06-18T02:39:49.461Z,31.67
2023-06-18T02:40:51.272Z,27.55
2023-06-18T02:41:53.040Z,27.50
2023-06-18T02:42:55.012Z,26.83
2023-06-18T02:43:56.791Z,26.48
2023-06-18T02:44:58.839Z,21.95
2023-06-18T02:46:00.566Z,26.52
2023-06-18T02:47:02.348Z,25.75
2023-06-18T02:48:04.716Z,26.40
2023-06-18T02:49:06.656Z,23.42
2023-06-18T02:50:08.946Z,24.42
2023-06-18T02:51:11.675Z,23.33
2023-06-18T02:52:13.441Z,23.45
2023-06-18T02:53:15.476Z,25.73
2023-06-18T02:54:17.335Z,23.10
2023-06-18T02:55:19.211Z,23.27
2023-06-18T02:56:21.090Z,25.13
2023-06-18T02:57:22.893Z,21.75
2023-06-18T02:58:24.720Z,22.15
2023-06-18T02:59:26.504Z,22.50
2023-06-18T03:00:28.282Z,22.55
2023-06-18T03:01:30.139Z,20.98
2023-06-18T03:02:32.876Z,23.10
2023-06-18T03:03:34.693Z,19.47
2023-06-18T03:04:36.546Z,20.67
2023-06-18T03:05:38.422Z,21.27
2023-06-18T03:06:40.238Z,21.55
2023-06-18T03:07:42.160Z,21.00
2023-06-18T03:08:44.287Z,23.63
2023-06-18T03:09:46.157Z,22.23
2023-06-18T03:10:48.216Z,21.52
2023-06-18T03:11:49.958Z,21.52
2023-06-18T03:12:51.691Z,26.73
2023-06-18T03:13:53.479Z,22.23
2023-06-18T03:14:55.587Z,25.88
2023-06-18T03:15:57.536Z,22.60
2023-06-18T03:16:59.513Z,25.15
2023-06-18T03:18:01.676Z,24.38
2023-06-18T03:19:04.375Z,22.73
2023-06-18T03:20:06.692Z,24.55
2023-06-18T03:21:08.555Z,21.33
2023-06-18T03:22:10.356Z,23.52
2023-06-18T03:23:12.130Z,21.83
2023-06-18T03:24:13.954Z,23.53
2023-06-18T03:25:16.043Z,23.20
2023-06-18T03:26:17.892Z,23.48
2023-06-18T03:27:19.759Z,23.48
2023-06-18T03:28:21.616Z,23.90
2023-06-18T03:29:23.617Z,25.73
2023-06-18T03:30:25.516Z,25.50
2023-06-18T03:31:27.361Z,24.65
2023-06-18T03:32:29.127Z,28.38
2023-06-18T03:33:30.904Z,25.67
2023-06-18T03:34:32.782Z,28.73
2023-06-18T03:35:34.576Z,23.88
2023-06-18T03:36:36.425Z,25.85
2023-06-18T03:37:38.293Z,29.73
2023-06-18T03:38:40.157Z,28.75
2023-06-18T03:39:41.886Z,25.33
2023-06-18T03:40:43.731Z,29.25
2023-06-18T03:41:45.907Z,27.30
2023-06-18T03:42:47.899Z,26.35
2023-06-18T03:43:49.908Z,27.65
2023-06-18T03:44:51.857Z,25.70
2023-06-18T03:45:53.856Z,28.98
2023-06-18T03:46:55.653Z,29.25
2023-06-18T03:47:57.641Z,27.23
2023-06-18T03:48:59.861Z,26.17
2023-06-18T03:50:01.770Z,28.15
2023-06-18T03:51:03.878Z,28.00
2023-06-18T03:52:06.263Z,28.00
2023-06-18T03:53:09.450Z,28.52
2023-06-18T03:54:11.689Z,28.05
2023-06-18T03:55:13.612Z,27.67
2023-06-18T03:56:15.449Z,28.85
2023-06-18T03:57:17.311Z,32.20
2023-06-18T03:58:19.165Z,27.95
2023-06-18T03:59:21.195Z,29.23
2023-06-18T04:00:23.441Z,30.25
2023-06-18T04:01:27.055Z,27.70
2023-06-18T04:02:29.077Z,28.38
2023-06-18T04:03:31.145Z,30.85
2023-06-18T04:04:33.099Z,29.95
2023-06-18T04:05:34.902Z,28.80
2023-06-18T04:06:36.697Z,28.52
2023-06-18T04:07:38.390Z,27.83
2023-06-18T04:08:42.654Z,31.70
2023-06-18T04:09:44.476Z,36.22
2023-06-18T04:10:46.725Z,29.30
2023-06-18T04:11:49.341Z,29.08
2023-06-18T04:12:51.130Z,30.13
2023-06-18T04:13:52.869Z,28.10
2023-06-18T04:14:54.605Z,29.02
2023-06-18T04:15:58.357Z,31.03
2023-06-18T04:17:00.166Z,27.80
2023-06-18T04:18:02.070Z,28.88
2023-06-18T04:19:04.157Z,30.67
2023-06-18T04:20:06.763Z,32.13
2023-06-18T04:21:08.640Z,31.42
2023-06-18T04:22:10.438Z,29.73
2023-06-18T04:23:13.777Z,33.80
2023-06-18T04:24:15.597Z,31.33
2023-06-18T04:25:17.546Z,28.35
2023-06-18T04:26:19.335Z,32.00
2023-06-18T04:27:21.137Z,30.65
2023-06-18T04:28:23.154Z,29.98
2023-06-18T04:29:25.083Z,32.50
2023-06-18T04:30:27.314Z,31.83
2023-06-18T04:31:29.188Z,32.10
2023-06-18T04:32:30.987Z,31.75
2023-06-18T04:33:32.843Z,31.67
2023-06-18T04:34:34.639Z,29.98
2023-06-18T04:35:36.400Z,32.80
2023-06-18T04:36:38.103Z,34.47
2023-06-18T04:37:39.860Z,33.58
2023-06-18T04:38:41.689Z,30.08
2023-06-18T04:39:43.608Z,29.55
2023-06-18T04:40:45.622Z,30.13
2023-06-18T04:41:47.443Z,28.13
2023-06-18T04:42:49.413Z,29.90
2023-06-18T04:43:51.186Z,27.63
2023-06-18T04:44:52.907Z,30.45
2023-06-18T04:45:54.767Z,31.17
2023-06-18T04:46:56.588Z,27.30
2023-06-18T04:47:58.492Z,29.17
2023-06-18T04:49:00.311Z,27.77
2023-06-18T04:50:02.304Z,31.48
2023-06-18T04:51:04.310Z,28.27
2023-06-18T04:52:06.766Z,28.00
2023-06-18T04:53:08.744Z,28.90
2023-06-18T04:54:10.620Z,29.08
2023-06-18T04:55:12.407Z,35.45
2023-06-18T04:56:14.171Z,31.13
2023-06-18T04:57:16.009Z,28.57
2023-06-18T04:58:17.906Z,29.83
2023-06-18T04:59:20.614Z,28.80
2023-06-18T05:00:24.241Z,32.28
2023-06-18T05:01:26.325Z,29.83
2023-06-18T05:02:28.251Z,29.23
2023-06-18T05:03:30.319Z,30.33
2023-06-18T05:04:33.303Z,28.67
2023-06-18T05:05:37.069Z,28.63
2023-06-18T05:06:38.872Z,29.10
2023-06-18T05:07:40.640Z,30.03
2023-06-18T05:08:42.446Z,29.45
2023-06-18T05:09:44.321Z,26.58
2023-06-18T05:10:46.222Z,26.52
2023-06-18T05:11:48.162Z,29.05
2023-06-18T05:12:49.934Z,28.02
2023-06-18T05:13:51.870Z,28.80
2023-06-18T05:14:55.093Z,28.13
2023-06-18T05:15:57.173Z,26.05
2023-06-18T05:16:58.954Z,27.20
2023-06-18T05:18:01.070Z,26.17
2023-06-18T05:19:03.426Z,26.70
2023-06-18T05:20:06.179Z,27.13
2023-06-18T05:21:08.037Z,26.63
2023-06-18T05:22:09.894Z,26.30
2023-06-18T05:23:11.683Z,26.20
2023-06-18T05:24:13.598Z,27.05
2023-06-18T05:25:15.491Z,26.98
2023-06-18T05:26:17.312Z,27.58
2023-06-18T05:27:19.269Z,26.98
2023-06-18T05:28:21.064Z,26.20
2023-06-18T05:29:22.884Z,27.10
2023-06-18T05:30:24.779Z,26.17
2023-06-18T05:31:26.858Z,31.67
2023-06-18T05:32:28.756Z,26.48
2023-06-18T05:33:30.675Z,28.98
2023-06-18T05:34:32.610Z,27.08
2023-06-18T05:35:34.691Z,26.60
2023-06-18T05:36:36.610Z,28.58
2023-06-18T05:37:38.453Z,27.70
2023-06-18T05:38:40.437Z,28.83
2023-06-18T05:39:42.463Z,26.20
2023-06-18T05:40:44.297Z,26.70
2023-06-18T05:41:46.416Z,24.63
2023-06-18T05:42:48.706Z,24.60
2023-06-18T05:43:50.560Z,25.23
2023-06-18T05:44:52.899Z,25.23
2023-06-18T05:45:55.082Z,25.77
2023-06-18T05:46:57.304Z,25.38
2023-06-18T05:47:59.180Z,26.70
2023-06-18T05:49:01.254Z,26.03
2023-06-18T05:50:03.638Z,24.30
2023-06-18T05:51:05.521Z,23.98
2023-06-18T05:52:07.615Z,23.80
2023-06-18T05:53:09.685Z,26.92
2023-06-18T05:54:11.590Z,26.10
2023-06-18T05:55:13.656Z,25.05
2023-06-18T05:56:15.542Z,24.02
2023-06-18T05:57:17.342Z,25.83
2023-06-18T05:58:19.259Z,23.50
2023-06-18T05:59:21.144Z,25.50
2023-06-18T06:00:23.289Z,26.65
2023-06-18T06:01:25.500Z,24.08
2023-06-18T06:02:27.553Z,25.50
2023-06-18T06:03:29.556Z,25.65
2023-06-18T06:04:31.432Z,28.45
2023-06-18T06:05:33.374Z,24.40
2023-06-18T06:06:35.545Z,24.05
2023-06-18T06:07:37.380Z,27.15
2023-06-18T06:08:39.166Z,22.88
2023-06-18T06:09:41.082Z,25.27
2023-06-18T06:10:43.017Z,22.52
2023-06-18T06:11:45.001Z,24.00
2023-06-18T06:12:46.883Z,25.15
2023-06-18T06:13:48.819Z,27.85
2023-06-18T06:14:50.616Z,23.17
2023-06-18T06:15:52.624Z,24.80
2023-06-18T06:16:54.694Z,22.95
2023-06-18T06:17:56.692Z,21.33
2023-06-18T06:18:58.760Z,25.98
2023-06-18T06:20:00.748Z,27.60
2023-06-18T06:21:02.571Z,23.40
2023-06-18T06:22:04.685Z,23.55
2023-06-18T06:23:06.475Z,23.42
2023-06-18T06:24:08.405Z,22.35
2023-06-18T06:25:10.440Z,23.75
2023-06-18T06:26:13.186Z,21.17
2023-06-18T06:27:15.331Z,22.92
2023-06-18T06:28:17.237Z,24.30
2023-06-18T06:29:19.032Z,21.02
2023-06-18T06:30:21.255Z,22.83
2023-06-18T06:31:23.417Z,22.77
2023-06-18T06:32:25.247Z,20.92
2023-06-18T06:33:27.059Z,24.58
2023-06-18T06:34:29.178Z,24.88
2023-06-18T06:35:31.018Z,21.60
2023-06-18T06:36:33.295Z,21.48
2023-06-18T06:37:35.453Z,22.45
2023-06-18T06:38:37.636Z,19.33
2023-06-18T06:39:39.731Z,21.35
2023-06-18T06:40:41.831Z,21.80
2023-06-18T06:41:43.879Z,23.65
2023-06-18T06:42:45.786Z,20.83
2023-06-18T06:43:47.642Z,22.23
2023-06-18T06:44:49.410Z,20.75
2023-06-18T06:45:51.575Z,24.05
2023-06-18T06:46:53.601Z,22.52
2023-06-18T06:47:55.962Z,21.50
2023-06-18T06:48:58.015Z,19.48
2023-06-18T06:49:59.986Z,19.23
2023-06-18T06:51:02.760Z,19.93
2023-06-18T06:52:04.928Z,19.67
2023-06-18T06:53:06.776Z,20.10
2023-06-18T06:54:08.668Z,19.67
2023-06-18T06:55:10.468Z,20.13
2023-06-18T06:56:12.341Z,19.33
2023-06-18T06:57:14.421Z,17.67
2023-06-18T06:58:16.352Z,21.08
2023-06-18T06:59:18.542Z,18.67
2023-06-18T07:00:21.404Z,20.45
2023-06-18T07:01:23.743Z,19.17
2023-06-18T07:02:26.242Z,18.20
2023-06-18T07:03:28.407Z,21.50
2023-06-18T07:04:32.753Z,21.60
2023-06-18T07:05:35.377Z,19.38
2023-06-18T07:06:37.790Z,17.63
2023-06-18T07:07:39.577Z,22.15
2023-06-18T07:08:41.722Z,33.22
2023-06-18T07:09:44.883Z,21.35
2023-06-18T07:10:46.930Z,18.35
2023-06-18T07:11:48.716Z,16.87
2023-06-18T07:12:50.736Z,20.73
2023-06-18T07:13:52.578Z,17.13
2023-06-18T07:14:54.743Z,18.45
2023-06-18T07:15:56.728Z,20.50
2023-06-18T07:16:59.458Z,18.48
2023-06-18T07:18:01.349Z,19.05
2023-06-18T07:19:03.226Z,18.90
2023-06-18T07:20:05.670Z,19.48
2023-06-18T07:21:07.521Z,20.65
2023-06-18T07:22:09.281Z,17.60
2023-06-18T07:23:11.084Z,20.42
2023-06-18T07:24:13.312Z,19.02
2023-06-18T07:25:15.310Z,17.65
2023-06-18T07:26:17.296Z,20.13
2023-06-18T07:27:19.188Z,19.75
2023-06-18T07:28:21.260Z,21.35
2023-06-18T07:29:23.135Z,18.88
2023-06-18T07:30:25.267Z,19.20
2023-06-18T07:31:27.178Z,17.88
2023-06-18T07:32:29.073Z,18.30
2023-06-18T07:33:30.964Z,21.27
2023-06-18T07:34:32.777Z,18.25
2023-06-18T07:35:34.868Z,18.63
2023-06-18T07:36:36.823Z,20.48
2023-06-18T07:37:38.684Z,19.45
2023-06-18T07:38:40.424Z,17.90
2023-06-18T07:39:42.289Z,20.00
2023-06-18T07:40:44.317Z,17.65
2023-06-18T07:41:46.253Z,17.50
2023-06-18T07:42:48.402Z,18.67
2023-06-18T07:43:50.252Z,17.70
2023-06-18T07:44:51.996Z,22.38
2023-06-18T07:45:53.781Z,19.42
2023-06-18T07:46:55.855Z,18.75
2023-06-18T07:47:57.900Z,17.73
2023-06-18T07:48:59.796Z,21.48
2023-06-18T07:50:01.902Z,18.15
2023-06-18T07:51:04.094Z,18.27
2023-06-18T07:52:06.637Z,19.77
2023-06-18T07:53:08.442Z,19.77
2023-06-18T07:54:10.233Z,17.23
2023-06-18T07:55:12.089Z,17.80
2023-06-18T07:56:13.930Z,22.20
2023-06-18T07:57:15.896Z,16.58
2023-06-18T07:58:17.853Z,16.75
2023-06-18T07:59:19.878Z,15.43
2023-06-18T08:00:21.951Z,20.58
2023-06-18T08:01:24.023Z,19.20
2023-06-18T08:02:26.039Z,19.50
2023-06-18T08:03:27.933Z,18.73
2023-06-18T08:04:29.878Z,20.15
2023-06-18T08:05:31.813Z,20.20
2023-06-18T08:06:33.602Z,18.30
2023-06-18T08:07:36.005Z,18.45
2023-06-18T08:08:37.958Z,15.70
2023-06-18T08:09:39.915Z,18.17
2023-06-18T08:10:41.788Z,17.70
2023-06-18T08:11:44.118Z,24.95
2023-06-18T08:12:46.007Z,17.52
2023-06-18T08:13:48.014Z,18.33
2023-06-18T08:14:49.921Z,17.38
2023-06-18T08:15:51.867Z,17.40
2023-06-18T08:16:53.645Z,16.55
2023-06-18T08:17:55.610Z,17.35
2023-06-18T08:18:57.652Z,15.52
2023-06-18T08:19:59.565Z,15.07
2023-06-18T08:21:01.784Z,16.10
2023-06-18T08:22:03.751Z,16.42
2023-06-18T08:23:05.742Z,16.65
2023-06-18T08:24:07.800Z,16.17
2023-06-18T08:25:09.617Z,16.48
2023-06-18T08:26:11.381Z,16.90
2023-06-18T08:27:13.167Z,17.63
2023-06-18T08:28:15.148Z,15.02
2023-06-18T08:29:16.965Z,14.55
2023-06-18T08:30:18.885Z,17.92
2023-06-18T08:31:20.769Z,14.30
2023-06-18T08:32:23.425Z,15.00
2023-06-18T08:33:26.400Z,15.57
2023-06-18T08:34:28.470Z,17.00
2023-06-18T08:35:30.302Z,22.88
2023-06-18T08:36:32.128Z,19.42
2023-06-18T08:37:33.960Z,18.20
2023-06-18T08:38:35.899Z,17.92
2023-06-18T08:39:38.527Z,16.25
2023-06-18T08:40:54.530Z,15.75
2023-06-18T08:41:58.319Z,18.20
2023-06-18T08:43:07.137Z,13.75
2023-06-18T08:44:09.850Z,15.32
2023-06-18T08:45:11.736Z,15.13
2023-06-18T08:46:15.620Z,13.65
2023-06-18T08:47:18.616Z,13.80
2023-06-18T08:48:31.764Z,14.45
2023-06-18T08:49:34.960Z,14.75
2023-06-18T08:50:39.894Z,13.63
2023-06-18T08:51:45.144Z,15.32
2023-06-18T08:52:52.748Z,15.07
2023-06-18T08:54:10.728Z,14.73
2023-06-18T08:55:13.486Z,16.35
2023-06-18T08:56:17.336Z,14.30
2023-06-18T08:57:41.470Z,15.07
2023-06-18T08:58:49.417Z,19.83
2023-06-18T08:59:52.431Z,14.35
2023-06-18T09:00:54.813Z,17.60
2023-06-18T09:01:57.038Z,13.43
2023-06-18T09:02:59.777Z,16.05
2023-06-18T09:04:02.535Z,13.43
2023-06-18T09:05:05.664Z,17.58
2023-06-18T09:06:08.990Z,14.75
2023-06-18T09:07:11.021Z,13.50
2023-06-18T09:08:14.883Z,14.63
2023-06-18T09:09:17.087Z,13.25
2023-06-18T09:10:19.175Z,15.38
2023-06-18T09:11:22.458Z,14.13
2023-06-18T09:12:26.186Z,13.88
2023-06-18T09:13:28.071Z,14.93
2023-06-18T09:14:29.874Z,13.27
2023-06-18T09:15:31.479Z,16.80
2023-06-18T09:16:33.471Z,14.55
2023-06-18T09:17:35.514Z,13.77
2023-06-18T09:18:37.656Z,15.00
2023-06-18T09:19:40.161Z,13.75
2023-06-18T09:20:42.316Z,13.77
2023-06-18T09:21:44.714Z,13.73
2023-06-18T09:22:49.078Z,14.75
2023-06-18T09:23:57.169Z,15.68
2023-06-18T09:24:59.936Z,13.85
2023-06-18T09:26:03.171Z,15.23
2023-06-18T09:27:06.609Z,13.48
2023-06-18T09:28:09.144Z,12.90
2023-06-18T09:29:12.761Z,15.60
2023-06-18T09:30:22.463Z,12.07
2023-06-18T09:31:27.795Z,14.35
2023-06-18T09:32:29.685Z,13.32
2023-06-18T09:33:36.297Z,14.45
2023-06-18T09:34:39.305Z,13.80
2023-06-18T09:35:44.215Z,12.65
2023-06-18T09:36:48.456Z,12.07
2023-06-18T09:37:50.632Z,11.60
2023-06-18T09:38:54.697Z,13.33
2023-06-18T09:40:14.987Z,13.18
2023-06-18T09:41:19.264Z,13.00
2023-06-18T09:42:29.761Z,14.95
2023-06-18T09:43:35.007Z,11.90
2023-06-18T09:44:37.088Z,13.82
2023-06-18T09:45:39.128Z,13.88
2023-06-18T09:46:50.790Z,12.43
2023-06-18T09:47:54.116Z,12.93
2023-06-18T09:48:55.997Z,13.05
2023-06-18T09:49:58.044Z,13.30
2023-06-18T09:51:00.176Z,15.00
2023-06-18T09:52:02.195Z,11.85
2023-06-18T09:53:04.101Z,12.30
2023-06-18T09:54:06.019Z,12.50
2023-06-18T09:55:32.943Z,11.43
2023-06-18T09:56:35.375Z,14.13
2023-06-18T09:57:50.179Z,13.68
2023-06-18T09:58:52.788Z,12.05
2023-06-18T10:00:13.273Z,18.02
2023-06-18T10:01:16.748Z,13.53
2023-06-18T10:02:26.792Z,11.32
2023-06-18T10:03:28.820Z,12.75
2023-06-18T10:04:30.624Z,15.07
2023-06-18T10:05:32.521Z,11.20
2023-06-18T10:06:36.601Z,11.40
2023-06-18T10:07:42.472Z,11.68
2023-06-18T10:08:49.670Z,12.02
2023-06-18T10:09:52.067Z,12.85
2023-06-18T10:10:53.877Z,12.10
2023-06-18T10:11:58.044Z,12.93
2023-06-18T10:13:04.382Z,10.88
2023-06-18T10:14:11.880Z,13.25
2023-06-18T10:15:14.765Z,11.75
2023-06-18T10:16:21.225Z,10.48
2023-06-18T10:17:27.457Z,12.43
2023-06-18T10:18:30.085Z,12.45
2023-06-18T10:19:38.015Z,11.80
2023-06-18T10:20:42.026Z,12.18
2023-06-18T10:21:59.233Z,10.32
2023-06-18T10:23:04.650Z,11.73
2023-06-18T10:24:22.676Z,12.98
2023-06-18T10:25:26.049Z,11.23
2023-06-18T10:26:29.478Z,12.00
2023-06-18T10:27:31.804Z,10.57
2023-06-18T10:28:34.282Z,10.93
2023-06-18T10:29:36.424Z,12.95
2023-06-18T10:30:39.759Z,12.30
2023-06-18T10:31:42.735Z,11.23
2023-06-18T10:32:45.310Z,12.48
2023-06-18T10:33:48.407Z,11.43
2023-06-18T10:34:51.644Z,10.98
2023-06-18T10:35:54.425Z,10.68
2023-06-18T10:36:57.600Z,10.98
2023-06-18T10:38:00.794Z,9.80
2023-06-18T10:39:03.230Z,12.05
2023-06-18T10:40:06.723Z,14.30
2023-06-18T10:41:12.793Z,11.07
2023-06-18T10:42:16.964Z,10.27
2023-06-18T10:43:25.448Z,10.63
2023-06-18T10:44:34.901Z,11.53
2023-06-18T10:45:37.037Z,11.07
2023-06-18T10:46:38.927Z,10.65
2023-06-18T10:47:42.003Z,11.45
2023-06-18T10:49:19.710Z,11.02
2023-06-18T10:50:23.878Z,13.05
2023-06-18T10:51:27.133Z,9.77
2023-06-18T10:52:30.847Z,11.85
2023-06-18T10:53:33.064Z,14.02
2023-06-18T10:54:34.815Z,11.23
2023-06-18T10:55:37.010Z,10.70
2023-06-18T10:56:38.792Z,13.73
2023-06-18T10:57:43.360Z,12.07
2023-06-18T10:58:45.292Z,11.95
2023-06-18T10:59:47.942Z,11.55
2023-06-18T11:00:54.993Z,12.73
2023-06-18T11:02:00.422Z,13.48
2023-06-18T11:03:18.082Z,14.00
2023-06-18T11:04:20.767Z,11.80
2023-06-18T11:05:34.554Z,11.38
2023-06-18T11:06:36.365Z,11.87
2023-06-18T11:07:41.294Z,10.20
2023-06-18T11:08:43.239Z,11.23
2023-06-18T11:09:58.404Z,12.77
2023-06-18T11:11:11.422Z,13.63
2023-06-18T11:12:24.129Z,11.13
2023-06-18T11:13:34.051Z,10.10
2023-06-18T11:14:37.614Z,10.68
2023-06-18T11:16:07.670Z,12.57
2023-06-18T11:17:11.063Z,10.65
2023-06-18T11:18:19.737Z,10.50
2023-06-18T11:19:21.986Z,12.27
2023-06-18T11:20:24.553Z,11.00
2023-06-18T11:21:26.822Z,12.00
2023-06-18T11:22:30.125Z,11.18
2023-06-18T11:23:33.132Z,12.18
2023-06-18T11:24:35.577Z,11.70
2023-06-18T11:25:37.482Z,9.65
2023-06-18T11:26:39.447Z,12.30
2023-06-18T11:27:46.940Z,10.82
2023-06-18T11:28:50.407Z,11.00
2023-06-18T11:30:01.771Z,12.40
2023-06-18T11:31:05.283Z,10.73
2023-06-18T11:32:14.125Z,12.18
2023-06-18T11:33:27.772Z,11.65
2023-06-18T11:34:30.083Z,12.57
2023-06-18T11:35:32.578Z,11.18
2023-06-18T11:36:34.629Z,11.48
2023-06-18T11:37:40.758Z,11.55
2023-06-18T11:38:42.844Z,11.48
2023-06-18T11:39:44.992Z,10.20
2023-06-18T11:40:50.597Z,11.07
2023-06-18T11:41:52.439Z,10.00
2023-06-18T11:42:54.769Z,9.70
2023-06-18T11:43:56.764Z,10.10
2023-06-18T11:45:08.342Z,10.38
2023-06-18T11:46:25.902Z,11.93
2023-06-18T11:47:27.736Z,10.82
2023-06-18T11:48:34.573Z,11.05
2023-06-18T11:49:36.327Z,12.45
2023-06-18T11:50:38.260Z,10.80
2023-06-18T11:51:40.652Z,12.23
2023-06-18T11:52:42.995Z,10.23
2023-06-18T11:53:46.967Z,11.13
2023-06-18T11:54:50.336Z,11.70
2023-06-18T11:55:54.901Z,10.43
2023-06-18T11:56:58.715Z,11.68
2023-06-18T11:58:02.955Z,12.43
2023-06-18T11:59:05.770Z,11.80
2023-06-18T12:00:08.659Z,10.43
2023-06-18T12:01:11.340Z,9.97
2023-06-18T12:02:15.405Z,11.13
2023-06-18T12:03:17.523Z,10.50
2023-06-18T12:04:19.505Z,9.15
2023-06-18T12:05:21.517Z,10.35
2023-06-18T12:06:27.725Z,10.82
2023-06-18T12:07:30.041Z,11.43
2023-06-18T12:08:32.479Z,9.98
2023-06-18T12:09:35.564Z,9.98
2023-06-18T12:10:39.062Z,9.30
2023-06-18T12:11:52.685Z,8.37
2023-06-18T12:13:07.208Z,9.63
2023-06-18T12:14:16.178Z,8.85
2023-06-18T12:15:31.885Z,8.57
2023-06-18T12:16:36.535Z,8.68
2023-06-18T12:17:54.626Z,10.68
2023-06-18T12:18:59.532Z,8.32
2023-06-18T12:20:08.970Z,10.57
2023-06-18T12:21:10.973Z,8.32
2023-06-18T12:22:12.910Z,10.25
2023-06-18T12:23:15.056Z,8.87
2023-06-18T12:24:17.061Z,9.45
2023-06-18T12:25:22.170Z,9.10
2023-06-18T12:26:24.811Z,10.85
2023-06-18T12:27:27.078Z,9.65
2023-06-18T12:28:29.127Z,10.32
2023-06-18T12:29:31.148Z,11.00
2023-06-18T12:30:37.193Z,9.40
2023-06-18T12:31:39.086Z,11.13
2023-06-18T12:32:41.281Z,9.32
2023-06-18T12:33:43.134Z,10.37
2023-06-18T12:34:45.096Z,8.50
2023-06-18T12:35:51.564Z,9.13
2023-06-18T12:36:57.104Z,8.77
2023-06-18T12:38:09.110Z,9.25
2023-06-18T12:39:11.481Z,9.02
2023-06-18T12:40:20.274Z,10.00
2023-06-18T12:41:23.792Z,8.52
2023-06-18T12:42:25.850Z,10.07
2023-06-18T12:43:27.936Z,9.15
2023-06-18T12:44:29.958Z,9.23
2023-06-18T12:45:33.083Z,11.95
2023-06-18T12:46:35.852Z,11.85
2023-06-18T12:47:46.489Z,9.35
2023-06-18T12:48:52.296Z,10.52
2023-06-18T12:49:54.526Z,10.18
2023-06-18T12:50:56.731Z,9.45
2023-06-18T12:51:58.695Z,12.25
2023-06-18T12:53:00.523Z,10.45
2023-06-18T12:54:02.291Z,12.60
2023-06-18T12:55:04.212Z,11.97
2023-06-18T12:56:22.866Z,9.55
2023-06-18T12:57:29.241Z,11.23
2023-06-18T12:58:32.162Z,12.60
2023-06-18T12:59:33.940Z,9.48
2023-06-18T13:00:35.788Z,10.60
2023-06-18T13:01:37.617Z,11.82
2023-06-18T13:02:39.455Z,10.65
2023-06-18T13:03:41.789Z,9.73
2023-06-18T13:04:44.023Z,9.63
2023-06-18T13:05:47.803Z,9.63
2023-06-18T13:06:50.002Z,9.82
2023-06-18T13:07:54.296Z,9.80
2023-06-18T13:08:56.119Z,10.27
2023-06-18T13:09:57.946Z,9.85
2023-06-18T13:10:59.896Z,9.85
2023-06-18T13:12:01.696Z,9.90
2023-06-18T13:13:03.517Z,9.98
2023-06-18T13:14:09.342Z,10.73
2023-06-18T13:15:15.897Z,11.90
2023-06-18T13:16:18.046Z,10.97
2023-06-18T13:17:19.950Z,10.27
2023-06-18T13:18:22.354Z,10.02
2023-06-18T13:19:24.152Z,9.45
2023-06-18T13:20:26.072Z,9.95
2023-06-18T13:21:28.112Z,10.00
2023-06-18T13:22:30.009Z,9.18
2023-06-18T13:23:31.827Z,9.20
2023-06-18T13:24:33.765Z,9.00
2023-06-18T13:25:35.727Z,10.77
2023-06-18T13:26:37.756Z,9.60
2023-06-18T13:27:39.535Z,10.18
2023-06-18T13:28:41.411Z,10.95
2023-06-18T13:29:43.238Z,8.75
2023-06-18T13:30:45.349Z,9.80
2023-06-18T13:31:47.122Z,8.90
2023-06-18T13:32:49.023Z,9.43
2023-06-18T13:33:50.951Z,10.40
2023-06-18T13:34:53.512Z,12.20
2023-06-18T13:35:55.463Z,8.00
2023-06-18T13:36:57.259Z,8.63
2023-06-18T13:37:59.263Z,8.57
2023-06-18T13:39:01.123Z,10.77